sensor_id;sensor_type;location;lat;lon;timestamp;temperature;humidity
48946;DHT22;34999;50.940;3.998;2024-03-17T00:01:03;7.70;99.90
48946;DHT22;34999;50.940;3.998;2024-03-17T00:03:31;7.70;99.90
48946;DHT22;34999;50.940;3.998;2024-03-17T00:05:59;7.60;99.90
48946;DHT22;34999;50.940;3.998;2024-03-17T00:08:26;7.60;99.90
48946;DHT22;34999;50.940;3.998;2024-03-17T00:10:54;7.50;99.90
48946;DHT22;34999;50.940;3.998;2024-03-17T00:13:21;7.50;99.90
48946;DHT22;34999;50.940;3.998;2024-03-17T00:15:48;7.40;99.90
48946;DHT22;34999;50.940;3.998;2024-03-17T00:18:15;7.40;99.90
48946;DHT22;34999;50.940;3.998;2024-03-17T00:20:44;7.30;99.90
48946;DHT22;34999;50.940;3.998;2024-03-17T00:23:12;7.20;99.90
48946;DHT22;34999;50.940;3.998;2024-03-17T00:25:40;7.20;99.90
48946;DHT22;34999;50.940;3.998;2024-03-17T00:28:09;7.10;99.90
48946;DHT22;34999;50.940;3.998;2024-03-17T00:30:37;7.10;99.90
48946;DHT22;34999;50.940;3.998;2024-03-17T00:33:04;7.00;99.90
48946;DHT22;34999;50.940;3.998;2024-03-17T00:35:32;7.00;99.90
48946;DHT22;34999;50.940;3.998;2024-03-17T00:38:00;6.90;99.90
48946;DHT22;34999;50.940;3.998;2024-03-17T00:40:30;6.90;99.90
48946;DHT22;34999;50.940;3.998;2024-03-17T00:42:57;6.90;99.90
48946;DHT22;34999;50.940;3.998;2024-03-17T00:45:23;6.90;99.90
48946;DHT22;34999;50.940;3.998;2024-03-17T00:47:51;6.90;99.90
48946;DHT22;34999;50.940;3.998;2024-03-17T00:50:17;6.80;99.90
48946;DHT22;34999;50.940;3.998;2024-03-17T00:52:44;6.80;99.90
48946;DHT22;34999;50.940;3.998;2024-03-17T00:55:12;6.90;99.90
48946;DHT22;34999;50.940;3.998;2024-03-17T00:57:40;7.00;99.90
48946;DHT22;34999;50.940;3.998;2024-03-17T01:00:07;7.00;99.90
48946;DHT22;34999;50.940;3.998;2024-03-17T01:02:37;7.10;99.90
48946;DHT22;34999;50.940;3.998;2024-03-17T01:05:06;7.10;99.90
48946;DHT22;34999;50.940;3.998;2024-03-17T01:07:33;7.20;99.90
48946;DHT22;34999;50.940;3.998;2024-03-17T01:10:01;7.30;99.90
48946;DHT22;34999;50.940;3.998;2024-03-17T01:12:29;7.30;99.90
48946;DHT22;34999;50.940;3.998;2024-03-17T01:14:56;7.40;99.90
48946;DHT22;34999;50.940;3.998;2024-03-17T01:17:23;7.50;99.90
48946;DHT22;34999;50.940;3.998;2024-03-17T01:19:50;7.50;99.90
48946;DHT22;34999;50.940;3.998;2024-03-17T01:22:17;7.60;99.90
48946;DHT22;34999;50.940;3.998;2024-03-17T01:24:45;7.60;99.90
48946;DHT22;34999;50.940;3.998;2024-03-17T01:27:12;7.70;99.90
48946;DHT22;34999;50.940;3.998;2024-03-17T01:29:43;7.70;99.90
48946;DHT22;34999;50.940;3.998;2024-03-17T01:32:10;7.70;99.90
48946;DHT22;34999;50.940;3.998;2024-03-17T01:34:37;7.70;99.90
48946;DHT22;34999;50.940;3.998;2024-03-17T01:37:04;7.70;99.90
48946;DHT22;34999;50.940;3.998;2024-03-17T01:39:32;7.70;99.90
48946;DHT22;34999;50.940;3.998;2024-03-17T01:41:59;7.70;99.90
48946;DHT22;34999;50.940;3.998;2024-03-17T01:44:27;7.60;99.90
48946;DHT22;34999;50.940;3.998;2024-03-17T01:46:56;7.60;99.90
48946;DHT22;34999;50.940;3.998;2024-03-17T01:49:24;7.70;99.90
48946;DHT22;34999;50.940;3.998;2024-03-17T01:51:52;7.70;99.90
48946;DHT22;34999;50.940;3.998;2024-03-17T01:54:21;7.70;99.90
48946;DHT22;34999;50.940;3.998;2024-03-17T01:56:47;7.70;99.90
48946;DHT22;34999;50.940;3.998;2024-03-17T01:59:15;7.70;99.90
48946;DHT22;34999;50.940;3.998;2024-03-17T02:01:41;7.60;99.90
48946;DHT22;34999;50.940;3.998;2024-03-17T02:04:10;7.60;99.90
48946;DHT22;34999;50.940;3.998;2024-03-17T02:06:37;7.60;99.90
48946;DHT22;34999;50.940;3.998;2024-03-17T02:09:05;7.60;99.90
48946;DHT22;34999;50.940;3.998;2024-03-17T02:11:33;7.60;99.90
48946;DHT22;34999;50.940;3.998;2024-03-17T02:14:01;7.60;99.90
48946;DHT22;34999;50.940;3.998;2024-03-17T02:16:28;7.60;99.90
48946;DHT22;34999;50.940;3.998;2024-03-17T02:18:55;7.60;99.90
48946;DHT22;34999;50.940;3.998;2024-03-17T02:21:24;7.50;99.90
48946;DHT22;34999;50.940;3.998;2024-03-17T02:23:55;7.50;99.90
48946;DHT22;34999;50.940;3.998;2024-03-17T02:26:24;7.50;99.90
48946;DHT22;34999;50.940;3.998;2024-03-17T02:28:51;7.50;99.90
48946;DHT22;34999;50.940;3.998;2024-03-17T02:31:18;7.50;99.90
48946;DHT22;34999;50.940;3.998;2024-03-17T02:33:46;7.50;99.90
48946;DHT22;34999;50.940;3.998;2024-03-17T02:36:12;7.50;99.90
48946;DHT22;34999;50.940;3.998;2024-03-17T02:38:42;7.40;99.90
48946;DHT22;34999;50.940;3.998;2024-03-17T02:41:27;7.40;99.90
48946;DHT22;34999;50.940;3.998;2024-03-17T02:43:55;7.40;99.90
48946;DHT22;34999;50.940;3.998;2024-03-17T02:46:23;7.40;99.90
48946;DHT22;34999;50.940;3.998;2024-03-17T02:48:52;7.40;99.90
48946;DHT22;34999;50.940;3.998;2024-03-17T02:51:21;7.40;99.90
48946;DHT22;34999;50.940;3.998;2024-03-17T02:53:50;7.40;99.90
48946;DHT22;34999;50.940;3.998;2024-03-17T02:56:18;7.40;99.90
48946;DHT22;34999;50.940;3.998;2024-03-17T02:58:47;7.30;99.90
48946;DHT22;34999;50.940;3.998;2024-03-17T03:01:17;7.40;99.90
48946;DHT22;34999;50.940;3.998;2024-03-17T03:03:45;7.40;99.90
48946;DHT22;34999;50.940;3.998;2024-03-17T03:06:14;7.40;99.90
48946;DHT22;34999;50.940;3.998;2024-03-17T03:08:41;7.40;99.90
48946;DHT22;34999;50.940;3.998;2024-03-17T03:11:11;7.30;99.90
48946;DHT22;34999;50.940;3.998;2024-03-17T03:13:40;7.30;99.90
48946;DHT22;34999;50.940;3.998;2024-03-17T03:16:10;7.30;99.90
48946;DHT22;34999;50.940;3.998;2024-03-17T03:18:38;7.20;99.90
48946;DHT22;34999;50.940;3.998;2024-03-17T03:21:06;7.10;99.90
48946;DHT22;34999;50.940;3.998;2024-03-17T03:23:34;7.10;99.90
48946;DHT22;34999;50.940;3.998;2024-03-17T03:26:03;7.10;99.90
48946;DHT22;34999;50.940;3.998;2024-03-17T03:28:32;7.10;99.90
48946;DHT22;34999;50.940;3.998;2024-03-17T03:31:00;7.00;99.90
48946;DHT22;34999;50.940;3.998;2024-03-17T03:33:29;7.00;99.90
48946;DHT22;34999;50.940;3.998;2024-03-17T03:35:57;7.00;99.90
48946;DHT22;34999;50.940;3.998;2024-03-17T03:38:24;7.00;99.90
48946;DHT22;34999;50.940;3.998;2024-03-17T03:40:51;6.90;99.90
48946;DHT22;34999;50.940;3.998;2024-03-17T03:43:19;6.90;99.90
48946;DHT22;34999;50.940;3.998;2024-03-17T03:45:47;6.90;99.90
48946;DHT22;34999;50.940;3.998;2024-03-17T03:48:14;6.90;99.90
48946;DHT22;34999;50.940;3.998;2024-03-17T03:50:43;6.80;99.90
48946;DHT22;34999;50.940;3.998;2024-03-17T03:53:10;6.80;99.90
48946;DHT22;34999;50.940;3.998;2024-03-17T03:55:38;6.70;99.90
48946;DHT22;34999;50.940;3.998;2024-03-17T03:58:05;6.70;99.90
48946;DHT22;34999;50.940;3.998;2024-03-17T04:00:32;6.70;99.90
48946;DHT22;34999;50.940;3.998;2024-03-17T04:03:00;6.80;99.90
48946;DHT22;34999;50.940;3.998;2024-03-17T04:05:28;6.80;99.90
48946;DHT22;34999;50.940;3.998;2024-03-17T04:07:57;6.80;99.90
48946;DHT22;34999;50.940;3.998;2024-03-17T04:10:24;6.80;99.90
48946;DHT22;34999;50.940;3.998;2024-03-17T04:12:52;6.80;99.90
48946;DHT22;34999;50.940;3.998;2024-03-17T04:15:20;6.80;99.90
48946;DHT22;34999;50.940;3.998;2024-03-17T04:17:46;6.90;99.90
48946;DHT22;34999;50.940;3.998;2024-03-17T04:20:14;6.90;99.90
48946;DHT22;34999;50.940;3.998;2024-03-17T04:22:42;6.90;99.90
48946;DHT22;34999;50.940;3.998;2024-03-17T04:25:12;6.90;99.90
48946;DHT22;34999;50.940;3.998;2024-03-17T04:27:40;6.90;99.90
48946;DHT22;34999;50.940;3.998;2024-03-17T04:30:08;6.90;99.90
48946;DHT22;34999;50.940;3.998;2024-03-17T04:32:37;7.00;99.90
48946;DHT22;34999;50.940;3.998;2024-03-17T04:35:06;7.00;99.90
48946;DHT22;34999;50.940;3.998;2024-03-17T04:37:34;7.00;99.90
48946;DHT22;34999;50.940;3.998;2024-03-17T04:40:06;7.00;99.90
48946;DHT22;34999;50.940;3.998;2024-03-17T04:42:37;7.00;99.90
48946;DHT22;34999;50.940;3.998;2024-03-17T04:45:07;7.00;99.90
48946;DHT22;34999;50.940;3.998;2024-03-17T04:47:36;7.00;99.90
48946;DHT22;34999;50.940;3.998;2024-03-17T04:50:05;7.00;99.90
48946;DHT22;34999;50.940;3.998;2024-03-17T04:52:33;7.00;99.90
48946;DHT22;34999;50.940;3.998;2024-03-17T04:55:00;6.90;99.90
48946;DHT22;34999;50.940;3.998;2024-03-17T04:57:29;6.90;99.90
48946;DHT22;34999;50.940;3.998;2024-03-17T04:59:58;6.90;99.90
48946;DHT22;34999;50.940;3.998;2024-03-17T05:02:26;6.90;99.90
48946;DHT22;34999;50.940;3.998;2024-03-17T05:04:53;6.90;99.90
48946;DHT22;34999;50.940;3.998;2024-03-17T05:07:22;6.90;99.90
48946;DHT22;34999;50.940;3.998;2024-03-17T05:09:51;6.90;99.90
48946;DHT22;34999;50.940;3.998;2024-03-17T05:12:19;6.90;99.90
48946;DHT22;34999;50.940;3.998;2024-03-17T05:14:46;7.00;99.90
48946;DHT22;34999;50.940;3.998;2024-03-17T05:17:15;7.00;99.90
48946;DHT22;34999;50.940;3.998;2024-03-17T05:19:42;7.00;99.90
48946;DHT22;34999;50.940;3.998;2024-03-17T05:22:10;7.00;99.90
48946;DHT22;34999;50.940;3.998;2024-03-17T05:24:37;7.00;99.90
48946;DHT22;34999;50.940;3.998;2024-03-17T05:27:04;7.10;99.90
48946;DHT22;34999;50.940;3.998;2024-03-17T05:29:32;7.10;99.90
48946;DHT22;34999;50.940;3.998;2024-03-17T05:32:02;7.10;99.90
48946;DHT22;34999;50.940;3.998;2024-03-17T05:34:31;7.20;99.90
48946;DHT22;34999;50.940;3.998;2024-03-17T05:37:00;7.20;99.90
48946;DHT22;34999;50.940;3.998;2024-03-17T05:39:27;7.20;99.90
48946;DHT22;34999;50.940;3.998;2024-03-17T05:41:55;7.20;99.90
48946;DHT22;34999;50.940;3.998;2024-03-17T05:44:22;7.20;99.90
48946;DHT22;34999;50.940;3.998;2024-03-17T05:46:50;7.20;99.90
48946;DHT22;34999;50.940;3.998;2024-03-17T05:49:19;7.20;99.90
48946;DHT22;34999;50.940;3.998;2024-03-17T05:51:48;7.20;99.90
48946;DHT22;34999;50.940;3.998;2024-03-17T05:54:16;7.10;99.90
48946;DHT22;34999;50.940;3.998;2024-03-17T05:56:43;7.10;99.90
48946;DHT22;34999;50.940;3.998;2024-03-17T05:59:10;7.10;99.90
48946;DHT22;34999;50.940;3.998;2024-03-17T06:01:38;7.20;99.90
48946;DHT22;34999;50.940;3.998;2024-03-17T06:04:05;7.20;99.90
48946;DHT22;34999;50.940;3.998;2024-03-17T06:06:32;7.20;99.90
48946;DHT22;34999;50.940;3.998;2024-03-17T06:09:01;7.20;99.90
48946;DHT22;34999;50.940;3.998;2024-03-17T06:11:30;7.30;99.90
48946;DHT22;34999;50.940;3.998;2024-03-17T06:14:00;7.30;99.90
48946;DHT22;34999;50.940;3.998;2024-03-17T06:16:30;7.40;99.90
48946;DHT22;34999;50.940;3.998;2024-03-17T06:18:58;7.40;99.90
48946;DHT22;34999;50.940;3.998;2024-03-17T06:21:25;7.50;99.90
48946;DHT22;34999;50.940;3.998;2024-03-17T06:23:53;7.60;99.90
48946;DHT22;34999;50.940;3.998;2024-03-17T06:26:21;7.60;99.90
48946;DHT22;34999;50.940;3.998;2024-03-17T06:28:49;7.60;99.90
48946;DHT22;34999;50.940;3.998;2024-03-17T06:31:16;7.70;99.90
48946;DHT22;34999;50.940;3.998;2024-03-17T06:33:43;7.80;99.90
48946;DHT22;34999;50.940;3.998;2024-03-17T06:36:11;7.90;99.90
48946;DHT22;34999;50.940;3.998;2024-03-17T06:38:39;7.90;99.90
48946;DHT22;34999;50.940;3.998;2024-03-17T06:41:07;7.90;99.90
48946;DHT22;34999;50.940;3.998;2024-03-17T06:43:36;8.00;99.90
48946;DHT22;34999;50.940;3.998;2024-03-17T06:46:05;8.10;99.90
48946;DHT22;34999;50.940;3.998;2024-03-17T06:48:33;8.10;99.90
48946;DHT22;34999;50.940;3.998;2024-03-17T06:51:00;8.10;99.90
48946;DHT22;34999;50.940;3.998;2024-03-17T06:53:28;8.10;99.90
48946;DHT22;34999;50.940;3.998;2024-03-17T06:55:55;8.20;99.90
48946;DHT22;34999;50.940;3.998;2024-03-17T06:58:24;8.20;99.90
48946;DHT22;34999;50.940;3.998;2024-03-17T07:00:55;8.30;99.90
48946;DHT22;34999;50.940;3.998;2024-03-17T07:03:24;8.40;99.90
48946;DHT22;34999;50.940;3.998;2024-03-17T07:05:55;8.30;99.90
48946;DHT22;34999;50.940;3.998;2024-03-17T07:08:23;8.40;99.90
48946;DHT22;34999;50.940;3.998;2024-03-17T07:11:01;8.40;99.90
48946;DHT22;34999;50.940;3.998;2024-03-17T07:13:31;8.50;99.90
48946;DHT22;34999;50.940;3.998;2024-03-17T07:16:00;8.50;99.90
48946;DHT22;34999;50.940;3.998;2024-03-17T07:18:28;8.60;99.90
48946;DHT22;34999;50.940;3.998;2024-03-17T07:20:59;8.60;99.90
48946;DHT22;34999;50.940;3.998;2024-03-17T07:23:26;8.70;99.90
48946;DHT22;34999;50.940;3.998;2024-03-17T07:25:54;8.70;99.90
48946;DHT22;34999;50.940;3.998;2024-03-17T07:28:22;8.80;99.90
48946;DHT22;34999;50.940;3.998;2024-03-17T07:30:52;8.80;99.90
48946;DHT22;34999;50.940;3.998;2024-03-17T07:33:21;8.90;99.90
48946;DHT22;34999;50.940;3.998;2024-03-17T07:35:49;8.90;99.90
48946;DHT22;34999;50.940;3.998;2024-03-17T07:38:18;9.00;99.90
48946;DHT22;34999;50.940;3.998;2024-03-17T07:40:54;9.00;99.90
48946;DHT22;34999;50.940;3.998;2024-03-17T07:43:22;9.10;99.90
48946;DHT22;34999;50.940;3.998;2024-03-17T07:45:57;9.20;99.90
48946;DHT22;34999;50.940;3.998;2024-03-17T07:48:27;9.20;99.90
48946;DHT22;34999;50.940;3.998;2024-03-17T07:50:55;9.30;99.90
48946;DHT22;34999;50.940;3.998;2024-03-17T07:53:22;9.40;99.90
48946;DHT22;34999;50.940;3.998;2024-03-17T07:56:00;9.40;99.90
48946;DHT22;34999;50.940;3.998;2024-03-17T07:58:30;9.50;99.90
48946;DHT22;34999;50.940;3.998;2024-03-17T08:00:59;9.50;99.90
48946;DHT22;34999;50.940;3.998;2024-03-17T08:03:30;9.60;99.90
48946;DHT22;34999;50.940;3.998;2024-03-17T08:06:01;9.60;99.90
48946;DHT22;34999;50.940;3.998;2024-03-17T08:08:29;9.70;99.90
48946;DHT22;34999;50.940;3.998;2024-03-17T08:10:57;9.60;99.90
48946;DHT22;34999;50.940;3.998;2024-03-17T08:13:24;9.60;99.90
48946;DHT22;34999;50.940;3.998;2024-03-17T08:15:58;9.50;99.90
48946;DHT22;34999;50.940;3.998;2024-03-17T08:18:25;9.50;99.90
48946;DHT22;34999;50.940;3.998;2024-03-17T08:20:54;9.50;99.90
48946;DHT22;34999;50.940;3.998;2024-03-17T08:23:23;9.50;99.90
48946;DHT22;34999;50.940;3.998;2024-03-17T08:25:53;9.50;99.90
48946;DHT22;34999;50.940;3.998;2024-03-17T08:28:20;9.50;99.90
48946;DHT22;34999;50.940;3.998;2024-03-17T08:30:52;9.50;99.90
48946;DHT22;34999;50.940;3.998;2024-03-17T08:33:20;9.40;99.90
48946;DHT22;34999;50.940;3.998;2024-03-17T08:35:56;9.40;99.90
48946;DHT22;34999;50.940;3.998;2024-03-17T08:38:25;9.40;99.90
48946;DHT22;34999;50.940;3.998;2024-03-17T08:40:54;9.40;99.90
48946;DHT22;34999;50.940;3.998;2024-03-17T08:43:22;9.30;99.90
48946;DHT22;34999;50.940;3.998;2024-03-17T08:45:55;9.30;99.90
48946;DHT22;34999;50.940;3.998;2024-03-17T08:48:26;9.30;99.90
48946;DHT22;34999;50.940;3.998;2024-03-17T08:50:57;9.40;99.90
48946;DHT22;34999;50.940;3.998;2024-03-17T08:53:25;9.40;99.90
48946;DHT22;34999;50.940;3.998;2024-03-17T08:55:53;9.40;99.90
48946;DHT22;34999;50.940;3.998;2024-03-17T08:58:20;9.40;99.90
48946;DHT22;34999;50.940;3.998;2024-03-17T09:00:48;9.50;99.90
48946;DHT22;34999;50.940;3.998;2024-03-17T09:03:15;9.40;99.90
48946;DHT22;34999;50.940;3.998;2024-03-17T09:05:44;9.50;99.90
48946;DHT22;34999;50.940;3.998;2024-03-17T09:08:16;9.60;99.90
48946;DHT22;34999;50.940;3.998;2024-03-17T09:10:47;9.60;99.90
48946;DHT22;34999;50.940;3.998;2024-03-17T09:13:16;9.70;99.90
48946;DHT22;34999;50.940;3.998;2024-03-17T09:15:50;9.70;99.90
48946;DHT22;34999;50.940;3.998;2024-03-17T09:18:18;9.70;99.90
48946;DHT22;34999;50.940;3.998;2024-03-17T09:20:45;9.70;99.90
48946;DHT22;34999;50.940;3.998;2024-03-17T09:23:14;9.70;99.90
48946;DHT22;34999;50.940;3.998;2024-03-17T09:25:41;9.70;99.90
48946;DHT22;34999;50.940;3.998;2024-03-17T09:28:09;9.70;99.90
48946;DHT22;34999;50.940;3.998;2024-03-17T09:30:37;9.70;99.90
48946;DHT22;34999;50.940;3.998;2024-03-17T09:33:04;9.70;99.90
48946;DHT22;34999;50.940;3.998;2024-03-17T09:35:32;9.70;99.90
48946;DHT22;34999;50.940;3.998;2024-03-17T09:37:59;9.80;99.90
48946;DHT22;34999;50.940;3.998;2024-03-17T09:40:28;9.80;99.90
48946;DHT22;34999;50.940;3.998;2024-03-17T09:42:59;9.90;99.90
48946;DHT22;34999;50.940;3.998;2024-03-17T09:45:27;9.90;99.90
48946;DHT22;34999;50.940;3.998;2024-03-17T09:47:55;10.00;99.90
48946;DHT22;34999;50.940;3.998;2024-03-17T09:50:23;10.10;99.90
48946;DHT22;34999;50.940;3.998;2024-03-17T09:52:52;10.20;99.90
48946;DHT22;34999;50.940;3.998;2024-03-17T09:55:19;10.30;99.90
48946;DHT22;34999;50.940;3.998;2024-03-17T09:57:48;10.30;99.90
48946;DHT22;34999;50.940;3.998;2024-03-17T10:00:16;10.30;99.90
48946;DHT22;34999;50.940;3.998;2024-03-17T10:02:43;10.30;99.90
48946;DHT22;34999;50.940;3.998;2024-03-17T10:05:22;10.40;99.90
48946;DHT22;34999;50.940;3.998;2024-03-17T10:07:50;10.40;99.90
48946;DHT22;34999;50.940;3.998;2024-03-17T10:10:18;10.50;99.90
48946;DHT22;34999;50.940;3.998;2024-03-17T10:12:51;10.60;99.90
48946;DHT22;34999;50.940;3.998;2024-03-17T10:15:20;10.60;99.90
48946;DHT22;34999;50.940;3.998;2024-03-17T10:17:47;10.50;99.90
48946;DHT22;34999;50.940;3.998;2024-03-17T10:20:16;10.50;99.90
48946;DHT22;34999;50.940;3.998;2024-03-17T10:23:01;10.50;99.90
48946;DHT22;34999;50.940;3.998;2024-03-17T10:25:30;10.60;99.90
48946;DHT22;34999;50.940;3.998;2024-03-17T10:28:00;10.70;99.90
48946;DHT22;34999;50.940;3.998;2024-03-17T10:30:28;10.60;99.90
48946;DHT22;34999;50.940;3.998;2024-03-17T10:32:58;10.60;99.90
48946;DHT22;34999;50.940;3.998;2024-03-17T10:35:31;10.60;99.90
48946;DHT22;34999;50.940;3.998;2024-03-17T10:37:59;10.70;99.90
48946;DHT22;34999;50.940;3.998;2024-03-17T10:40:28;10.70;99.90
48946;DHT22;34999;50.940;3.998;2024-03-17T10:42:59;10.70;99.90
48946;DHT22;34999;50.940;3.998;2024-03-17T10:45:27;10.70;99.90
48946;DHT22;34999;50.940;3.998;2024-03-17T10:47:59;10.90;99.90
48946;DHT22;34999;50.940;3.998;2024-03-17T10:50:30;11.10;99.90
48946;DHT22;34999;50.940;3.998;2024-03-17T10:53:02;11.30;99.90
48946;DHT22;34999;50.940;3.998;2024-03-17T10:55:42;11.70;99.90
48946;DHT22;34999;50.940;3.998;2024-03-17T10:58:21;12.00;99.90
48946;DHT22;34999;50.940;3.998;2024-03-17T11:00:50;12.20;99.90
48946;DHT22;34999;50.940;3.998;2024-03-17T11:03:19;12.40;99.90
48946;DHT22;34999;50.940;3.998;2024-03-17T11:05:47;12.60;99.90
48946;DHT22;34999;50.940;3.998;2024-03-17T11:08:16;12.60;99.90
48946;DHT22;34999;50.940;3.998;2024-03-17T11:10:50;12.70;99.90
48946;DHT22;34999;50.940;3.998;2024-03-17T11:13:25;12.90;99.90
48946;DHT22;34999;50.940;3.998;2024-03-17T11:15:54;13.00;99.90
48946;DHT22;34999;50.940;3.998;2024-03-17T11:18:39;13.10;99.90
48946;DHT22;34999;50.940;3.998;2024-03-17T11:21:21;13.10;99.90
48946;DHT22;34999;50.940;3.998;2024-03-17T11:23:56;13.30;99.90
48946;DHT22;34999;50.940;3.998;2024-03-17T11:26:30;13.60;99.90
48946;DHT22;34999;50.940;3.998;2024-03-17T11:29:00;14.10;99.90
48946;DHT22;34999;50.940;3.998;2024-03-17T11:31:43;14.60;99.90
48946;DHT22;34999;50.940;3.998;2024-03-17T11:37:40;15.30;99.90
48946;DHT22;34999;50.940;3.998;2024-03-17T11:40:23;15.60;99.90
48946;DHT22;34999;50.940;3.998;2024-03-17T11:43:03;15.40;99.90
48946;DHT22;34999;50.940;3.998;2024-03-17T11:45:33;15.40;99.90
48946;DHT22;34999;50.940;3.998;2024-03-17T11:48:00;15.50;99.90
48946;DHT22;34999;50.940;3.998;2024-03-17T11:50:30;15.80;99.90
48946;DHT22;34999;50.940;3.998;2024-03-17T11:52:59;15.90;99.90
48946;DHT22;34999;50.940;3.998;2024-03-17T11:55:28;16.10;99.90
48946;DHT22;34999;50.940;3.998;2024-03-17T11:57:57;16.20;98.70
48946;DHT22;34999;50.940;3.998;2024-03-17T12:00:29;16.40;99.90
48946;DHT22;34999;50.940;3.998;2024-03-17T12:02:57;16.40;1.00
48946;DHT22;34999;50.940;3.998;2024-03-17T12:05:26;16.20;15.90
48946;DHT22;34999;50.940;3.998;2024-03-17T12:07:54;16.40;1.00
48946;DHT22;34999;50.940;3.998;2024-03-17T12:10:22;16.10;1.00
48946;DHT22;34999;50.940;3.998;2024-03-17T12:12:49;15.90;1.00
48946;DHT22;34999;50.940;3.998;2024-03-17T12:15:19;15.80;1.00
48946;DHT22;34999;50.940;3.998;2024-03-17T12:17:46;15.70;1.60
48946;DHT22;34999;50.940;3.998;2024-03-17T12:20:20;15.30;1.00
48946;DHT22;34999;50.940;3.998;2024-03-17T12:22:47;15.00;21.10
48946;DHT22;34999;50.940;3.998;2024-03-17T12:25:17;14.90;52.00
48946;DHT22;34999;50.940;3.998;2024-03-17T12:27:45;15.00;52.10
48946;DHT22;34999;50.940;3.998;2024-03-17T12:30:13;14.90;46.10
48946;DHT22;34999;50.940;3.998;2024-03-17T12:32:40;14.90;71.70
48946;DHT22;34999;50.940;3.998;2024-03-17T12:35:13;15.00;41.60
48946;DHT22;34999;50.940;3.998;2024-03-17T12:37:44;15.00;35.00
48946;DHT22;34999;50.940;3.998;2024-03-17T12:40:22;15.10;48.60
48946;DHT22;34999;50.940;3.998;2024-03-17T12:42:49;15.20;28.30
48946;DHT22;34999;50.940;3.998;2024-03-17T12:45:21;15.20;27.50
48946;DHT22;34999;50.940;3.998;2024-03-17T12:47:48;15.30;1.00
48946;DHT22;34999;50.940;3.998;2024-03-17T12:50:17;15.40;28.80
48946;DHT22;34999;50.940;3.998;2024-03-17T12:52:53;15.40;10.20
48946;DHT22;34999;50.940;3.998;2024-03-17T12:55:21;15.40;45.50
48946;DHT22;34999;50.940;3.998;2024-03-17T12:58:08;15.40;15.50
48946;DHT22;34999;50.940;3.998;2024-03-17T13:01:05;15.50;4.40
48946;DHT22;34999;50.940;3.998;2024-03-17T13:03:34;15.40;1.00
48946;DHT22;34999;50.940;3.998;2024-03-17T13:06:02;15.40;25.50
48946;DHT22;34999;50.940;3.998;2024-03-17T13:08:33;15.40;40.10
48946;DHT22;34999;50.940;3.998;2024-03-17T13:11:01;15.50;1.00
48946;DHT22;34999;50.940;3.998;2024-03-17T13:13:30;15.60;1.00
48946;DHT22;34999;50.940;3.998;2024-03-17T13:15:57;15.50;1.00
48946;DHT22;34999;50.940;3.998;2024-03-17T13:18:25;15.50;1.00
48946;DHT22;34999;50.940;3.998;2024-03-17T13:20:53;15.50;1.00
48946;DHT22;34999;50.940;3.998;2024-03-17T13:23:23;15.60;1.00
48946;DHT22;34999;50.940;3.998;2024-03-17T13:25:52;15.70;1.00
48946;DHT22;34999;50.940;3.998;2024-03-17T13:28:20;15.70;1.00
48946;DHT22;34999;50.940;3.998;2024-03-17T13:30:47;15.60;1.00
48946;DHT22;34999;50.940;3.998;2024-03-17T13:33:14;15.60;1.00
48946;DHT22;34999;50.940;3.998;2024-03-17T13:35:42;15.60;1.00
48946;DHT22;34999;50.940;3.998;2024-03-17T13:38:10;15.60;1.00
48946;DHT22;34999;50.940;3.998;2024-03-17T13:40:39;15.60;1.00
48946;DHT22;34999;50.940;3.998;2024-03-17T13:43:09;15.60;3.40
48946;DHT22;34999;50.940;3.998;2024-03-17T13:45:39;15.50;5.60
48946;DHT22;34999;50.940;3.998;2024-03-17T13:48:07;15.40;50.20
48946;DHT22;34999;50.940;3.998;2024-03-17T13:50:37;15.20;51.70
48946;DHT22;34999;50.940;3.998;2024-03-17T13:53:05;14.90;63.70
48946;DHT22;34999;50.940;3.998;2024-03-17T13:55:33;14.70;87.10
48946;DHT22;34999;50.940;3.998;2024-03-17T13:58:01;14.60;99.90
48946;DHT22;34999;50.940;3.998;2024-03-17T14:00:33;14.60;99.90
48946;DHT22;34999;50.940;3.998;2024-03-17T14:03:06;14.60;99.90
48946;DHT22;34999;50.940;3.998;2024-03-17T14:05:34;14.40;99.90
48946;DHT22;34999;50.940;3.998;2024-03-17T14:08:02;14.40;99.90
48946;DHT22;34999;50.940;3.998;2024-03-17T14:10:31;14.30;99.90
48946;DHT22;34999;50.940;3.998;2024-03-17T14:12:59;14.10;99.90
48946;DHT22;34999;50.940;3.998;2024-03-17T14:15:27;14.00;99.90
48946;DHT22;34999;50.940;3.998;2024-03-17T14:18:00;13.90;99.90
48946;DHT22;34999;50.940;3.998;2024-03-17T14:20:27;13.90;99.90
48946;DHT22;34999;50.940;3.998;2024-03-17T14:22:56;14.00;99.90
48946;DHT22;34999;50.940;3.998;2024-03-17T14:25:25;14.00;99.90
48946;DHT22;34999;50.940;3.998;2024-03-17T14:27:52;13.90;99.90
48946;DHT22;34999;50.940;3.998;2024-03-17T14:30:21;13.90;99.90
48946;DHT22;34999;50.940;3.998;2024-03-17T14:32:49;13.90;99.90
48946;DHT22;34999;50.940;3.998;2024-03-17T14:35:19;13.80;99.90
48946;DHT22;34999;50.940;3.998;2024-03-17T14:37:50;13.80;99.90
48946;DHT22;34999;50.940;3.998;2024-03-17T14:40:26;13.70;99.90
48946;DHT22;34999;50.940;3.998;2024-03-17T14:42:55;13.80;99.90
48946;DHT22;34999;50.940;3.998;2024-03-17T14:45:23;13.90;99.90
48946;DHT22;34999;50.940;3.998;2024-03-17T14:47:51;13.90;99.90
48946;DHT22;34999;50.940;3.998;2024-03-17T14:50:23;14.00;99.90
48946;DHT22;34999;50.940;3.998;2024-03-17T14:52:52;14.00;99.90
48946;DHT22;34999;50.940;3.998;2024-03-17T14:55:20;14.00;99.90
48946;DHT22;34999;50.940;3.998;2024-03-17T14:57:49;14.00;99.90
48946;DHT22;34999;50.940;3.998;2024-03-17T15:00:17;14.10;99.90
48946;DHT22;34999;50.940;3.998;2024-03-17T15:02:47;14.00;99.90
48946;DHT22;34999;50.940;3.998;2024-03-17T15:05:16;14.00;99.90
48946;DHT22;34999;50.940;3.998;2024-03-17T15:07:47;13.90;99.90
48946;DHT22;34999;50.940;3.998;2024-03-17T15:10:15;13.80;99.90
48946;DHT22;34999;50.940;3.998;2024-03-17T15:12:46;13.70;99.90
48946;DHT22;34999;50.940;3.998;2024-03-17T15:15:15;13.70;99.90
48946;DHT22;34999;50.940;3.998;2024-03-17T15:17:43;13.70;99.90
48946;DHT22;34999;50.940;3.998;2024-03-17T15:20:11;13.60;99.90
48946;DHT22;34999;50.940;3.998;2024-03-17T15:22:47;13.50;99.90
48946;DHT22;34999;50.940;3.998;2024-03-17T15:25:16;13.40;99.90
48946;DHT22;34999;50.940;3.998;2024-03-17T15:27:44;13.30;99.90
48946;DHT22;34999;50.940;3.998;2024-03-17T15:30:13;13.20;99.90
48946;DHT22;34999;50.940;3.998;2024-03-17T15:32:44;13.10;99.90
48946;DHT22;34999;50.940;3.998;2024-03-17T15:35:12;13.10;99.90
48946;DHT22;34999;50.940;3.998;2024-03-17T15:37:40;13.10;99.90
48946;DHT22;34999;50.940;3.998;2024-03-17T15:40:10;13.10;99.90
48946;DHT22;34999;50.940;3.998;2024-03-17T15:42:43;13.10;99.90
48946;DHT22;34999;50.940;3.998;2024-03-17T15:45:11;13.20;99.90
48946;DHT22;34999;50.940;3.998;2024-03-17T15:47:38;13.20;99.90
48946;DHT22;34999;50.940;3.998;2024-03-17T15:50:07;13.10;99.90
48946;DHT22;34999;50.940;3.998;2024-03-17T15:52:35;13.10;99.90
48946;DHT22;34999;50.940;3.998;2024-03-17T15:55:03;13.10;99.90
48946;DHT22;34999;50.940;3.998;2024-03-17T15:57:32;13.00;99.90